createdAt,value
2023-06-09T00:01:04.101Z,4.85
2023-06-09T00:03:33.255Z,4.55
2023-06-09T00:06:00.396Z,4.63
2023-06-09T00:08:27.777Z,5.60
2023-06-09T00:10:54.675Z,4.75
2023-06-09T00:13:21.782Z,4.32
2023-06-09T00:15:48.569Z,5.13
2023-06-09T00:18:17.371Z,4.93
2023-06-09T00:20:44.492Z,4.65
2023-06-09T00:23:11.314Z,4.88
2023-06-09T00:25:38.191Z,4.88
2023-06-09T00:28:05.235Z,4.95
2023-06-09T00:30:39.639Z,4.78
2023-06-09T00:33:07.476Z,5.38
2023-06-09T00:35:34.696Z,4.82
2023-06-09T00:38:01.642Z,4.65
2023-06-09T00:40:28.698Z,4.80
2023-06-09T00:42:56.205Z,4.85
2023-06-09T00:45:23.124Z,4.95
2023-06-09T00:47:50.490Z,4.70
2023-06-09T00:50:21.424Z,5.30
2023-06-09T00:52:49.463Z,5.47
2023-06-09T00:55:19.219Z,5.25
2023-06-09T00:57:48.758Z,4.97
2023-06-09T01:00:17.610Z,5.07
2023-06-09T01:02:44.905Z,4.85
2023-06-09T01:05:14.022Z,5.20
2023-06-09T01:07:42.232Z,5.00
2023-06-09T01:10:19.403Z,5.35
2023-06-09T01:13:07.209Z,5.10
2023-06-09T01:15:40.111Z,4.90
2023-06-09T01:18:13.819Z,4.83
2023-06-09T01:21:07.840Z,5.05
2023-06-09T01:23:55.972Z,4.68
2023-06-09T01:26:23.977Z,5.00
2023-06-09T01:28:52.251Z,4.78
2023-06-09T01:31:20.268Z,4.90
2023-06-09T01:33:47.852Z,4.80
2023-06-09T01:36:16.693Z,4.47
2023-06-09T01:38:44.094Z,4.70
2023-06-09T01:41:11.009Z,4.50
2023-06-09T01:43:37.855Z,4.78
2023-06-09T01:46:05.190Z,4.80
2023-06-09T01:49:00.426Z,4.28
2023-06-09T01:51:59.220Z,4.43
2023-06-09T01:54:30.879Z,4.55
2023-06-09T01:57:07.956Z,4.50
2023-06-09T01:59:56.744Z,4.40
2023-06-09T02:02:27.045Z,4.20
2023-06-09T02:04:56.270Z,4.45
2023-06-09T02:07:23.878Z,3.90
2023-06-09T02:09:51.091Z,4.30
2023-06-09T02:12:17.986Z,4.13
2023-06-09T02:14:44.896Z,4.07
2023-06-09T02:17:11.824Z,4.22
2023-06-09T02:19:39.973Z,4.72
2023-06-09T02:22:07.776Z,4.80
2023-06-09T02:24:36.048Z,4.30
2023-06-09T02:27:04.346Z,4.65
2023-06-09T02:29:31.436Z,4.15
2023-06-09T02:32:00.822Z,4.90
2023-06-09T02:34:28.514Z,4.78
2023-06-09T02:36:55.675Z,4.82
2023-06-09T02:39:23.199Z,4.80
2023-06-09T02:41:50.159Z,4.50
2023-06-09T02:44:17.228Z,4.50
2023-06-09T02:46:45.520Z,4.50
2023-06-09T02:49:13.067Z,4.50
2023-06-09T02:51:39.917Z,4.25
2023-06-09T02:54:06.734Z,3.95
2023-06-09T02:56:33.563Z,4.50
2023-06-09T02:59:00.340Z,4.18
2023-06-09T03:01:29.204Z,4.50
2023-06-09T03:03:56.285Z,4.20
2023-06-09T03:06:23.180Z,4.25
2023-06-09T03:08:50.060Z,4.60
2023-06-09T03:11:16.979Z,4.32
2023-06-09T03:13:43.885Z,4.60
2023-06-09T03:16:10.740Z,4.20
2023-06-09T03:18:37.640Z,4.25
2023-06-09T03:21:06.017Z,4.72
2023-06-09T03:23:33.984Z,4.30
2023-06-09T03:26:01.222Z,4.55
2023-06-09T03:28:28.189Z,4.32
2023-06-09T03:30:56.558Z,4.30
2023-06-09T03:33:25.500Z,4.65
2023-06-09T03:35:52.782Z,4.55
2023-06-09T03:38:19.539Z,4.43
2023-06-09T03:40:46.407Z,4.70
2023-06-09T03:43:13.311Z,4.80
2023-06-09T03:45:40.453Z,4.30
2023-06-09T03:48:08.374Z,4.55
2023-06-09T03:50:35.331Z,4.90
2023-06-09T03:53:02.202Z,4.68
2023-06-09T03:55:30.969Z,4.47
2023-06-09T03:57:57.911Z,5.00
2023-06-09T04:00:25.002Z,4.78
2023-06-09T04:02:51.931Z,4.63
2023-06-09T04:05:18.775Z,4.60
2023-06-09T04:07:45.780Z,3.88
2023-06-09T04:10:12.711Z,4.32
2023-06-09T04:12:42.541Z,4.65
2023-06-09T04:15:10.867Z,4.18
2023-06-09T04:17:39.007Z,4.60
2023-06-09T04:20:09.067Z,4.32
2023-06-09T04:22:36.780Z,4.60
2023-06-09T04:25:04.037Z,4.38
2023-06-09T04:27:31.791Z,4.57
2023-06-09T04:29:58.861Z,4.00
2023-06-09T04:32:26.250Z,4.13
2023-06-09T04:34:53.947Z,4.35
2023-06-09T04:37:21.568Z,4.10
2023-06-09T04:39:48.694Z,3.70
2023-06-09T04:42:20.561Z,4.13
2023-06-09T04:44:52.001Z,4.35
2023-06-09T04:47:19.595Z,3.97
2023-06-09T04:49:47.954Z,4.00
2023-06-09T04:52:18.726Z,3.78
2023-06-09T04:54:46.295Z,4.00
2023-06-09T04:57:13.289Z,3.65
2023-06-09T04:59:42.257Z,3.55
2023-06-09T05:02:12.300Z,4.28
2023-06-09T05:04:39.319Z,3.90
2023-06-09T05:07:07.840Z,3.55
2023-06-09T05:09:35.654Z,4.53
2023-06-09T05:12:02.521Z,4.55
2023-06-09T05:14:32.028Z,4.25
2023-06-09T05:17:01.248Z,4.72
2023-06-09T05:19:28.999Z,4.95
2023-06-09T05:21:58.110Z,4.82
2023-06-09T05:24:25.254Z,4.25
2023-06-09T05:26:52.056Z,5.10
2023-06-09T05:29:19.129Z,4.85
2023-06-09T05:31:46.053Z,4.78
2023-06-09T05:34:13.414Z,4.90
2023-06-09T05:36:40.456Z,4.97
2023-06-09T05:39:08.455Z,4.85
2023-06-09T05:41:35.730Z,4.80
2023-06-09T05:44:02.544Z,6.22
2023-06-09T05:46:29.507Z,5.30
2023-06-09T05:48:56.538Z,5.47
2023-06-09T05:51:23.481Z,5.50
2023-06-09T05:53:50.439Z,5.55
2023-06-09T05:56:18.137Z,6.00
2023-06-09T05:58:45.391Z,5.68
2023-06-09T06:01:15.166Z,4.88
2023-06-09T06:03:43.063Z,5.32
2023-06-09T06:06:11.755Z,5.82
2023-06-09T06:08:39.871Z,5.35
2023-06-09T06:11:06.785Z,5.80
2023-06-09T06:13:33.673Z,5.65
2023-06-09T06:16:01.515Z,5.47
2023-06-09T06:18:28.638Z,5.53
2023-06-09T06:20:55.560Z,5.72
2023-06-09T06:23:22.696Z,5.30
2023-06-09T06:25:49.526Z,5.35
2023-06-09T06:28:16.478Z,5.10
2023-06-09T06:30:43.568Z,4.78
2023-06-09T06:33:10.434Z,5.00
2023-06-09T06:35:37.358Z,4.88
2023-06-09T06:38:04.435Z,5.15
2023-06-09T06:40:32.508Z,4.82
2023-06-09T06:42:59.450Z,5.00
2023-06-09T06:45:29.372Z,4.68
2023-06-09T06:47:56.936Z,4.88
2023-06-09T06:50:26.105Z,5.05
2023-06-09T06:52:53.783Z,4.90
2023-06-09T06:55:20.703Z,4.60
2023-06-09T06:57:47.516Z,5.25
2023-06-09T07:00:17.516Z,5.50
2023-06-09T07:02:48.719Z,5.40
2023-06-09T07:05:17.116Z,5.60
2023-06-09T07:07:48.563Z,5.30
2023-06-09T07:10:15.588Z,5.85
2023-06-09T07:12:42.962Z,5.18
2023-06-09T07:15:10.342Z,5.22
2023-06-09T07:17:37.224Z,5.72
2023-06-09T07:20:05.261Z,5.80
2023-06-09T07:22:35.044Z,5.68
2023-06-09T07:25:02.300Z,6.07
2023-06-09T07:27:29.158Z,6.63
2023-06-09T07:29:56.299Z,6.05
2023-06-09T07:32:23.425Z,6.38
2023-06-09T07:34:51.881Z,6.20
2023-06-09T07:37:18.974Z,5.78
2023-06-09T07:39:46.021Z,6.30
2023-06-09T07:42:12.896Z,5.57
2023-06-09T07:44:41.169Z,5.25
2023-06-09T07:47:08.373Z,5.78
2023-06-09T07:49:36.089Z,5.03
2023-06-09T07:52:16.332Z,5.15
2023-06-09T07:54:47.586Z,5.20
2023-06-09T07:57:14.735Z,5.47
2023-06-09T07:59:41.503Z,5.00
2023-06-09T08:02:08.433Z,5.22
2023-06-09T08:04:35.507Z,4.90
2023-06-09T08:07:02.804Z,5.00
2023-06-09T08:09:29.726Z,4.60
2023-06-09T08:11:56.600Z,4.50
2023-06-09T08:14:23.546Z,5.05
2023-06-09T08:16:50.816Z,4.40
2023-06-09T08:19:17.779Z,4.57
2023-06-09T08:21:45.265Z,4.30
2023-06-09T08:24:12.723Z,4.72
2023-06-09T08:26:40.429Z,4.28
2023-06-09T08:29:07.979Z,4.40
2023-06-09T08:31:38.188Z,4.35
2023-06-09T08:34:05.071Z,3.33
2023-06-09T08:36:32.973Z,4.15
2023-06-09T08:38:59.982Z,4.13
2023-06-09T08:41:33.608Z,4.30
2023-06-09T08:44:00.906Z,4.10
2023-06-09T08:46:34.235Z,3.60
2023-06-09T08:49:01.792Z,3.83
2023-06-09T08:51:29.926Z,4.10
2023-06-09T08:53:57.963Z,4.20
2023-06-09T08:56:24.880Z,4.00
2023-06-09T08:58:53.463Z,4.65
2023-06-09T09:01:20.716Z,4.10
2023-06-09T09:03:48.975Z,4.05
2023-06-09T09:06:16.842Z,4.72
2023-06-09T09:08:45.213Z,4.53
2023-06-09T09:11:12.655Z,4.35
2023-06-09T09:13:41.670Z,4.32
2023-06-09T09:16:15.284Z,4.20
2023-06-09T09:18:47.079Z,4.25
2023-06-09T09:21:24.290Z,4.20
2023-06-09T09:24:13.012Z,4.57
2023-06-09T09:26:43.081Z,4.32
2023-06-09T09:29:10.632Z,4.63
2023-06-09T09:31:40.756Z,4.63
2023-06-09T09:34:14.984Z,4.47
2023-06-09T09:36:46.587Z,4.40
2023-06-09T09:39:14.238Z,4.70
2023-06-09T09:42:01.052Z,4.70
2023-06-09T09:44:42.302Z,4.53
2023-06-09T09:47:14.435Z,4.30
2023-06-09T09:50:02.266Z,4.68
2023-06-09T09:52:32.026Z,4.72
2023-06-09T09:55:08.814Z,4.80
2023-06-09T09:57:36.563Z,4.38
2023-06-09T10:00:09.886Z,4.43
2023-06-09T10:05:08.454Z,4.40
2023-06-09T10:07:39.359Z,4.70
2023-06-09T10:10:09.869Z,4.25
2023-06-09T10:12:39.089Z,4.20
2023-06-09T10:15:09.877Z,4.38
2023-06-09T10:17:38.235Z,4.07
2023-06-09T10:20:06.855Z,4.35
2023-06-09T10:22:34.315Z,4.45
2023-06-09T10:25:01.906Z,4.22
2023-06-09T10:27:29.682Z,4.28
2023-06-09T10:29:56.873Z,3.80
2023-06-09T10:32:28.520Z,4.25
2023-06-09T10:34:58.958Z,4.25
2023-06-09T10:37:34.102Z,4.13
2023-06-09T10:40:19.039Z,4.07
2023-06-09T10:42:58.304Z,3.83
2023-06-09T10:45:49.447Z,3.50
2023-06-09T10:48:52.037Z,3.60
2023-06-09T10:51:28.088Z,3.67
2023-06-09T10:54:19.059Z,3.20
2023-06-09T10:57:01.682Z,3.50
2023-06-09T10:59:29.798Z,3.38
2023-06-09T11:02:05.920Z,2.90
2023-06-09T11:04:39.219Z,3.55
2023-06-09T11:07:14.930Z,3.38
2023-06-09T11:09:47.690Z,3.20
2023-06-09T11:12:30.606Z,3.13
2023-06-09T11:15:03.568Z,3.43
2023-06-09T11:17:39.063Z,3.20
2023-06-09T11:20:13.184Z,3.10
2023-06-09T11:22:43.802Z,2.78
2023-06-09T11:25:19.525Z,2.95
2023-06-09T11:28:10.473Z,2.97
2023-06-09T11:31:01.628Z,2.63
2023-06-09T11:33:47.268Z,3.00
2023-06-09T11:36:28.304Z,2.80
2023-06-09T11:39:05.382Z,2.63
2023-06-09T11:41:33.543Z,2.60
2023-06-09T11:44:01.117Z,2.67
2023-06-09T11:46:28.227Z,2.85
2023-06-09T11:49:02.718Z,2.47
2023-06-09T11:51:29.718Z,2.88
2023-06-09T11:53:56.577Z,2.80
2023-06-09T11:56:23.778Z,2.25
2023-06-09T11:58:54.169Z,2.63
2023-06-09T12:01:24.742Z,2.67
2023-06-09T12:03:51.802Z,2.55
2023-06-09T12:06:18.982Z,2.40
2023-06-09T12:08:46.530Z,2.65
2023-06-09T12:11:18.179Z,2.53
2023-06-09T12:13:49.571Z,2.47
2023-06-09T12:16:16.473Z,2.50
2023-06-09T12:18:43.496Z,2.40
2023-06-09T12:21:11.120Z,2.85
2023-06-09T12:23:39.214Z,2.53
2023-06-09T12:26:08.152Z,3.10
2023-06-09T12:28:35.764Z,2.60
2023-06-09T12:31:12.837Z,2.47
2023-06-09T12:33:46.509Z,2.40
2023-06-09T12:36:13.404Z,2.45
2023-06-09T12:38:46.748Z,2.40
2023-06-09T12:41:15.342Z,2.50
2023-06-09T12:43:49.347Z,2.40
2023-06-09T12:46:28.625Z,2.20
2023-06-09T12:49:02.709Z,2.40
2023-06-09T12:51:30.685Z,2.50
2023-06-09T12:53:58.177Z,2.50
2023-06-09T12:56:28.856Z,2.25
2023-06-09T12:58:56.068Z,2.53
2023-06-09T13:01:24.093Z,2.58
2023-06-09T13:03:51.845Z,2.63
2023-06-09T13:06:19.091Z,2.67
2023-06-09T13:08:46.337Z,2.60
2023-06-09T13:11:13.564Z,2.75
2023-06-09T13:13:41.533Z,2.70
2023-06-09T13:16:09.246Z,2.35
2023-06-09T13:18:39.468Z,2.65
2023-06-09T13:21:07.319Z,2.33
2023-06-09T13:23:34.295Z,2.50
2023-06-09T13:26:01.243Z,2.63
2023-06-09T13:28:28.305Z,2.70
2023-06-09T13:30:55.407Z,2.42
2023-06-09T13:33:22.717Z,2.30
2023-06-09T13:35:49.979Z,2.20
2023-06-09T13:38:16.791Z,2.60
2023-06-09T13:40:48.178Z,2.53
2023-06-09T13:43:16.310Z,2.80
2023-06-09T13:45:43.974Z,2.58
2023-06-09T13:48:12.337Z,2.50
2023-06-09T13:50:40.337Z,2.90
2023-06-09T13:53:07.472Z,2.40
2023-06-09T13:55:34.439Z,2.47
2023-06-09T13:58:01.419Z,2.60
2023-06-09T14:00:28.369Z,2.50
2023-06-09T14:02:55.988Z,2.47
2023-06-09T14:05:25.007Z,2.58
2023-06-09T14:07:52.132Z,2.92
2023-06-09T14:10:19.420Z,2.92
2023-06-09T14:12:49.457Z,2.88
2023-06-09T14:17:50.932Z,2.60
2023-06-09T14:20:21.224Z,2.65
2023-06-09T14:22:48.622Z,2.72
2023-06-09T14:25:19.704Z,2.85
2023-06-09T14:27:47.708Z,2.80
2023-06-09T14:30:15.626Z,2.72
2023-06-09T14:32:48.645Z,2.90
2023-06-09T14:35:23.332Z,3.05
2023-06-09T14:37:59.480Z,3.20
2023-06-09T14:40:30.363Z,3.20
2023-06-09T14:42:58.461Z,3.10
2023-06-09T14:45:26.210Z,2.83
2023-06-09T14:47:58.585Z,3.10
2023-06-09T14:50:37.283Z,2.53
2023-06-09T14:53:04.661Z,3.00
2023-06-09T14:55:33.830Z,2.45
2023-06-09T14:58:02.976Z,2.65
2023-06-09T15:00:31.329Z,2.60
2023-06-09T15:02:59.791Z,3.10
2023-06-09T15:05:31.470Z,2.90
2023-06-09T15:08:00.312Z,2.78
2023-06-09T15:10:28.835Z,2.63
2023-06-09T15:12:56.328Z,2.90
2023-06-09T15:15:27.160Z,3.50
2023-06-09T15:17:54.445Z,3.53
2023-06-09T15:20:22.522Z,3.33
2023-06-09T15:22:49.352Z,3.50
2023-06-09T15:25:16.255Z,3.13
2023-06-09T15:27:44.441Z,3.28
2023-06-09T15:30:13.042Z,3.15
2023-06-09T15:32:40.022Z,3.65
2023-06-09T15:35:07.513Z,3.10
2023-06-09T15:37:34.540Z,3.30
2023-06-09T15:40:04.283Z,3.40
2023-06-09T15:42:31.481Z,3.20
2023-06-09T15:44:59.580Z,3.40
2023-06-09T15:47:28.746Z,2.88
2023-06-09T15:49:56.164Z,3.40
2023-06-09T15:52:23.167Z,3.03
2023-06-09T15:54:50.052Z,3.40
2023-06-09T15:57:21.062Z,3.47
2023-06-09T15:59:47.897Z,3.35
2023-06-09T16:02:14.736Z,3.00
2023-06-09T16:04:41.613Z,2.70
2023-06-09T16:07:08.582Z,2.65
2023-06-09T16:09:35.433Z,2.40
2023-06-09T16:12:02.265Z,2.70
2023-06-09T16:14:29.504Z,2.35
2023-06-09T16:16:56.494Z,2.92
2023-06-09T16:19:23.375Z,2.55
2023-06-09T16:21:50.454Z,2.60
2023-06-09T16:24:17.495Z,2.60
2023-06-09T16:26:46.044Z,2.38
2023-06-09T16:29:13.038Z,2.50
2023-06-09T16:31:40.058Z,2.55
2023-06-09T16:34:06.995Z,2.55
2023-06-09T16:36:33.796Z,2.50
2023-06-09T16:39:00.997Z,2.60
2023-06-09T16:41:27.953Z,2.83
2023-06-09T16:43:56.193Z,2.65
2023-06-09T16:46:23.336Z,2.55
2023-06-09T16:48:50.623Z,2.50
2023-06-09T16:51:17.916Z,2.50
2023-06-09T16:53:45.159Z,2.53
2023-06-09T16:56:12.091Z,2.03
2023-06-09T16:58:38.940Z,2.30
2023-06-09T17:01:05.807Z,2.70
2023-06-09T17:03:32.854Z,2.40
2023-06-09T17:05:59.797Z,2.40
2023-06-09T17:08:27.847Z,2.22
2023-06-09T17:10:54.741Z,2.40
2023-06-09T17:13:22.681Z,2.28
2023-06-09T17:15:49.540Z,2.40
2023-06-09T17:18:16.480Z,2.53
2023-06-09T17:20:43.337Z,2.33
2023-06-09T17:23:10.260Z,2.63
2023-06-09T17:25:38.499Z,2.30
2023-06-09T17:28:05.329Z,2.72
2023-06-09T17:30:32.965Z,2.75
2023-06-09T17:32:59.962Z,2.38
2023-06-09T17:35:26.839Z,2.35
2023-06-09T17:37:53.669Z,2.72
2023-06-09T17:40:20.541Z,2.58
2023-06-09T17:42:47.324Z,2.55
2023-06-09T17:45:14.090Z,2.65
2023-06-09T17:47:41.315Z,2.70
2023-06-09T17:50:09.158Z,2.83
2023-06-09T17:52:36.620Z,3.05
2023-06-09T17:55:04.495Z,2.55
2023-06-09T17:57:39.820Z,2.30
2023-06-09T18:00:07.774Z,2.50
2023-06-09T18:02:34.688Z,2.50
2023-06-09T18:05:01.636Z,2.40
2023-06-09T18:07:28.652Z,3.13
2023-06-09T18:09:56.233Z,2.70
2023-06-09T18:12:23.093Z,2.50
2023-06-09T18:14:50.595Z,2.60
2023-06-09T18:17:17.420Z,3.33
2023-06-09T18:19:44.649Z,3.55
2023-06-09T18:22:11.454Z,3.67
2023-06-09T18:24:38.426Z,3.17
2023-06-09T18:27:06.430Z,3.40
2023-06-09T18:29:33.556Z,3.28
2023-06-09T18:32:01.807Z,3.60
2023-06-09T18:34:28.943Z,3.17
2023-06-09T18:36:55.815Z,3.05
2023-06-09T18:39:23.385Z,2.72
2023-06-09T18:41:50.704Z,2.60
2023-06-09T18:44:19.626Z,2.80
2023-06-09T18:46:47.139Z,2.80
2023-06-09T18:49:14.148Z,2.80
2023-06-09T18:51:41.752Z,2.88
2023-06-09T18:54:08.811Z,2.83
2023-06-09T18:56:36.315Z,3.30
2023-06-09T18:59:03.316Z,3.00
2023-06-09T19:01:30.337Z,3.00
2023-06-09T19:03:57.923Z,2.70
2023-06-09T19:06:25.693Z,2.90
2023-06-09T19:08:52.475Z,3.58
2023-06-09T19:11:19.571Z,2.55
2023-06-09T19:13:46.517Z,3.22
2023-06-09T19:16:13.545Z,2.70
2023-06-09T19:18:40.521Z,2.97
2023-06-09T19:21:07.530Z,3.38
2023-06-09T19:23:34.470Z,3.00
2023-06-09T19:26:02.370Z,3.35
2023-06-09T19:28:29.419Z,3.15
2023-06-09T19:30:56.469Z,3.13
2023-06-09T19:33:23.357Z,3.33
2023-06-09T19:35:50.324Z,3.30
2023-06-09T19:38:18.365Z,3.28
2023-06-09T19:40:45.883Z,3.00
2023-06-09T19:43:13.260Z,3.03
2023-06-09T19:45:40.212Z,2.90
2023-06-09T19:48:07.661Z,3.40
2023-06-09T19:50:38.060Z,2.95
2023-06-09T19:53:06.329Z,2.80
2023-06-09T19:55:33.570Z,2.80
2023-06-09T19:58:00.765Z,2.97
2023-06-09T20:00:27.803Z,3.25
2023-06-09T20:02:54.780Z,3.17
2023-06-09T20:05:21.948Z,3.15
2023-06-09T20:07:48.909Z,3.20
2023-06-09T20:10:15.894Z,3.15
2023-06-09T20:12:42.698Z,3.33
2023-06-09T20:15:10.526Z,3.30
2023-06-09T20:17:37.551Z,3.50
2023-06-09T20:20:05.512Z,3.33
2023-06-09T20:22:32.395Z,3.30
2023-06-09T20:24:59.206Z,3.83
2023-06-09T20:27:26.071Z,3.40
2023-06-09T20:29:53.951Z,3.50
2023-06-09T20:32:20.815Z,3.25
2023-06-09T20:34:47.967Z,3.50
2023-06-09T20:37:15.023Z,3.97
2023-06-09T20:39:42.407Z,3.80
2023-06-09T20:42:09.589Z,3.42
2023-06-09T20:44:37.252Z,3.40
2023-06-09T20:47:04.815Z,3.83
2023-06-09T20:49:31.753Z,3.70
2023-06-09T20:51:59.052Z,3.80
2023-06-09T20:54:25.942Z,3.28
2023-06-09T20:56:52.905Z,3.75
2023-06-09T20:59:19.751Z,3.40
2023-06-09T21:01:47.752Z,3.60
2023-06-09T21:04:16.976Z,3.60
2023-06-09T21:06:44.041Z,3.40
2023-06-09T21:09:11.811Z,3.65
2023-06-09T21:11:38.697Z,3.55
2023-06-09T21:14:05.838Z,3.50
2023-06-09T21:16:32.913Z,3.35
2023-06-09T21:19:00.023Z,3.38
2023-06-09T21:21:26.920Z,3.90
2023-06-09T21:23:53.848Z,3.40
2023-06-09T21:26:25.798Z,3.75
2023-06-09T21:28:53.558Z,3.47
2023-06-09T21:31:20.734Z,3.55
2023-06-09T21:33:47.720Z,4.32
2023-06-09T21:36:14.785Z,3.90
2023-06-09T21:38:42.017Z,3.58
2023-06-09T21:41:09.000Z,3.50
2023-06-09T21:43:35.942Z,3.50
2023-06-09T21:46:02.877Z,3.58
2023-06-09T21:48:30.012Z,3.75
2023-06-09T21:50:56.803Z,4.13
2023-06-09T21:53:23.606Z,3.80
2023-06-09T21:55:50.453Z,3.72
2023-06-09T21:58:17.281Z,3.60
2023-06-09T22:00:44.162Z,3.97
2023-06-09T22:03:12.990Z,3.65
2023-06-09T22:05:39.905Z,3.90
2023-06-09T22:08:06.779Z,3.55
2023-06-09T22:10:35.352Z,3.60
2023-06-09T22:13:02.252Z,3.75
2023-06-09T22:15:29.334Z,3.70
2023-06-09T22:17:56.704Z,3.65
2023-06-09T22:20:25.088Z,3.80
2023-06-09T22:22:51.997Z,3.90
2023-06-09T22:25:18.897Z,3.50
2023-06-09T22:27:47.039Z,3.80
2023-06-09T22:30:14.077Z,3.70
2023-06-09T22:32:41.111Z,3.53
2023-06-09T22:35:09.244Z,3.90
2023-06-09T22:37:36.380Z,3.80
2023-06-09T22:40:04.486Z,3.65
2023-06-09T22:42:31.443Z,3.55
2023-06-09T22:44:58.269Z,4.07
2023-06-09T22:47:25.189Z,3.90
2023-06-09T22:50:13.148Z,4.00
2023-06-09T22:52:46.256Z,3.85
2023-06-09T22:55:15.565Z,3.33
2023-06-09T22:57:43.804Z,3.90
2023-06-09T23:00:12.462Z,3.88
2023-06-09T23:02:42.899Z,3.70
2023-06-09T23:05:29.269Z,3.50
2023-06-09T23:07:56.343Z,3.78
2023-06-09T23:10:23.193Z,3.80
2023-06-09T23:12:50.099Z,3.80
2023-06-09T23:15:17.957Z,4.07
2023-06-09T23:17:44.932Z,3.70
2023-06-09T23:20:14.503Z,4.55
2023-06-09T23:22:41.561Z,3.55
2023-06-09T23:25:09.196Z,3.47
2023-06-09T23:27:37.523Z,3.20
2023-06-09T23:30:12.661Z,3.80
2023-06-09T23:32:40.861Z,3.92
2023-06-09T23:35:08.807Z,3.90
2023-06-09T23:37:38.042Z,3.75
2023-06-09T23:40:09.865Z,3.65
2023-06-09T23:42:37.757Z,3.67
2023-06-09T23:45:05.516Z,3.72
2023-06-09T23:47:32.473Z,3.67
2023-06-09T23:49:59.404Z,3.60
2023-06-09T23:52:26.319Z,3.65
2023-06-09T23:54:53.722Z,3.75
2023-06-09T23:57:20.738Z,4.22
2023-06-09T23:59:48.634Z,3.78
